Time;durP1;ratioP1;P1;durP2;ratioP2;P2;SDS_P1;SDS_P2;PMS_P1;PMS_P2;Temp;Humidity;BMP_temperature;BMP_pressure;BME280_temperature;BME280_humidity;BME280_pressure;Samples;Min_cycle;Max_cycle;Signal;HPM_P1;HPM_P2
2022/03/26 00:00:00;;;;;;;41.25;20.63;;;;;;;7.77;62.92;103097.88;5022513;28;20064;-77
2022/03/26 00:02:27;;;;;;;40.38;19.63;;;;;;;7.75;63.15;103095.16;5022306;28;20041;-78
2022/03/26 00:04:53;;;;;;;42.45;19.50;;;;;;;7.74;63.00;103101.13;5021781;28;20025;-77
2022/03/26 00:07:18;;;;;;;42.38;20.30;;;;;;;7.72;63.08;103094.94;5020171;28;20113;-78
2022/03/26 00:09:43;;;;;;;46.08;21.40;;;;;;;7.71;63.02;103093.13;5026503;28;20034;-77
2022/03/26 00:12:09;;;;;;;41.30;20.23;;;;;;;7.72;63.03;103097.53;5021605;28;20025;-78
2022/03/26 00:14:34;;;;;;;40.00;20.27;;;;;;;7.68;63.26;103092.94;5027458;28;20049;-77
2022/03/26 00:17:00;;;;;;;39.30;19.85;;;;;;;7.65;63.26;103087.53;5020289;28;20048;-77
2022/03/26 00:19:26;;;;;;;41.72;20.13;;;;;;;7.60;63.06;103094.06;5022188;28;20034;-77
2022/03/26 00:21:52;;;;;;;42.75;19.77;;;;;;;7.54;63.60;103101.41;5020786;28;20048;-78
2022/03/26 00:24:17;;;;;;;44.70;21.20;;;;;;;7.51;63.63;103086.50;5022140;28;20261;-77
2022/03/26 00:26:42;;;;;;;40.42;20.65;;;;;;;7.46;63.84;103093.97;5023318;28;20303;-79
2022/03/26 00:29:08;;;;;;;40.75;21.13;;;;;;;7.42;63.67;103093.63;5020631;28;20034;-79
2022/03/26 00:31:34;;;;;;;40.22;19.90;;;;;;;7.36;63.95;103088.91;5031304;28;20041;-79
2022/03/26 00:34:00;;;;;;;43.78;20.42;;;;;;;7.30;64.16;103081.56;5022129;28;20050;-79
2022/03/26 00:36:26;;;;;;;37.75;18.15;;;;;;;7.27;64.27;103086.53;5017234;28;20053;-79
2022/03/26 00:38:51;;;;;;;41.70;19.42;;;;;;;7.23;64.49;103086.22;5025559;28;20196;-79
2022/03/26 00:41:16;;;;;;;40.05;18.88;;;;;;;7.17;64.52;103088.31;5018766;28;20061;-79
2022/03/26 00:43:41;;;;;;;38.75;19.75;;;;;;;7.14;65.03;103089.91;5026352;28;20049;-79
2022/03/26 00:46:07;;;;;;;42.55;20.55;;;;;;;7.14;64.52;103089.03;5028239;28;20232;-79
2022/03/26 00:48:33;;;;;;;38.03;20.50;;;;;;;7.11;64.54;103092.28;5025308;28;20050;-79
2022/03/26 00:50:58;;;;;;;40.60;19.77;;;;;;;7.10;65.03;103092.19;5022390;28;20056;-79
2022/03/26 00:53:23;;;;;;;39.70;20.05;;;;;;;7.07;65.21;103091.97;5021981;28;20360;-79
2022/03/26 00:55:49;;;;;;;37.53;18.02;;;;;;;7.04;64.70;103090.03;5017363;28;20021;-79
2022/03/26 00:58:14;;;;;;;37.97;19.10;;;;;;;7.01;64.85;103089.81;5021301;28;20024;-78
2022/03/26 01:00:42;;;;;;;36.80;18.15;;;;;;;6.95;64.78;103089.31;5021895;28;20339;-77
2022/03/26 01:03:09;;;;;;;41.55;20.45;;;;;;;6.92;64.75;103087.44;5018507;28;20042;-77
2022/03/26 01:05:35;;;;;;;47.05;19.73;;;;;;;6.92;64.86;103082.25;5019121;28;20096;-77
2022/03/26 01:08:00;;;;;;;38.70;20.08;;;;;;;6.89;65.55;103079.41;5028740;28;20272;-77
2022/03/26 01:10:26;;;;;;;38.00;18.15;;;;;;;6.83;65.67;103078.94;5021396;28;20030;-77
2022/03/26 01:12:52;;;;;;;35.35;18.02;;;;;;;6.70;65.99;103077.13;5021995;28;20033;-77
2022/03/26 01:15:18;;;;;;;38.83;19.13;;;;;;;6.65;65.77;103075.88;5020373;28;20041;-77
2022/03/26 01:17:43;;;;;;;42.28;20.52;;;;;;;6.61;66.18;103077.34;5020509;28;20026;-77
2022/03/26 01:20:09;;;;;;;39.47;19.73;;;;;;;6.61;66.33;103079.91;5019736;28;20268;-77
2022/03/26 01:22:34;;;;;;;45.03;20.17;;;;;;;6.62;66.53;103067.91;5025340;28;20028;-77
2022/03/26 01:24:59;;;;;;;41.05;20.42;;;;;;;6.64;66.81;103076.66;5021970;28;20261;-77
2022/03/26 01:27:25;;;;;;;44.92;20.27;;;;;;;6.65;66.82;103075.88;5029566;28;20200;-77
2022/03/26 01:29:50;;;;;;;45.15;20.77;;;;;;;6.67;66.58;103083.78;5021047;28;20192;-77
2022/03/26 01:32:15;;;;;;;39.15;20.38;;;;;;;6.65;66.55;103075.88;5020969;28;20030;-77
2022/03/26 01:34:41;;;;;;;43.38;20.45;;;;;;;6.63;66.97;103080.03;5022291;28;20276;-77
2022/03/26 01:37:07;;;;;;;40.20;19.88;;;;;;;6.60;66.49;103074.63;5023034;28;20072;-77
2022/03/26 01:39:32;;;;;;;42.10;19.95;;;;;;;6.63;67.11;103073.97;5025313;28;20026;-77
2022/03/26 01:42:05;;;;;;;39.88;19.00;;;;;;;6.57;66.65;103083.06;5024765;28;20052;-77
2022/03/26 01:44:31;;;;;;;46.33;20.77;;;;;;;6.51;66.73;103080.00;5023331;28;20215;-77
2022/03/26 01:46:56;;;;;;;42.30;20.25;;;;;;;6.49;66.55;103083.25;5023993;28;20085;-77
2022/03/26 01:49:22;;;;;;;42.88;19.50;;;;;;;6.45;67.25;103084.72;5032052;28;20046;-78
2022/03/26 01:51:48;;;;;;;42.83;19.13;;;;;;;6.41;67.45;103085.28;5031182;28;20040;-77
2022/03/26 01:54:15;;;;;;;43.63;20.60;;;;;;;6.37;68.06;103084.16;5032400;28;20200;-77
2022/03/26 01:56:41;;;;;;;41.03;19.02;;;;;;;6.36;67.64;103076.28;5028324;28;20036;-77
2022/03/26 01:59:08;;;;;;;41.42;19.65;;;;;;;6.33;68.19;103082.09;5023340;28;20292;-78
2022/03/26 02:01:34;;;;;;;39.00;19.23;;;;;;;6.31;68.12;103082.75;5036934;28;20033;-77
2022/03/26 02:04:04;;;;;;;38.65;18.75;;;;;;;6.29;68.03;103074.88;5025710;28;20057;-77
2022/03/26 02:06:34;;;;;;;39.83;19.35;;;;;;;6.28;68.12;103080.84;5024592;28;20173;-77
2022/03/26 02:09:08;;;;;;;41.45;19.85;;;;;;;6.30;67.85;103084.47;5033799;28;20286;-77
2022/03/26 02:11:36;;;;;;;37.83;18.85;;;;;;;6.25;68.43;103078.00;5022858;28;20288;-77
2022/03/26 02:14:03;;;;;;;38.58;19.38;;;;;;;6.19;68.09;103075.84;5025772;28;20311;-77
2022/03/26 02:16:30;;;;;;;42.22;20.00;;;;;;;6.16;68.11;103070.44;5023956;28;20037;-77
2022/03/26 02:18:56;;;;;;;38.20;19.25;;;;;;;6.18;68.50;103070.56;5024137;28;20045;-77
2022/03/26 02:21:22;;;;;;;42.30;20.77;;;;;;;6.17;68.66;103072.25;5033133;28;20076;-78
2022/03/26 02:23:49;;;;;;;44.28;20.45;;;;;;;6.18;69.04;103075.72;5023066;28;20129;-77
2022/03/26 02:26:25;;;;;;;39.25;19.58;;;;;;;6.14;68.46;103069.44;5024256;28;20044;-77
2022/03/26 02:28:52;;;;;;;39.67;19.73;;;;;;;6.09;68.91;103079.41;5022222;28;20084;-77
2022/03/26 02:31:18;;;;;;;41.28;19.42;;;;;;;6.06;69.03;103086.94;5024081;28;20184;-77
2022/03/26 02:33:43;;;;;;;39.83;19.70;;;;;;;6.05;68.63;103079.97;5023744;28;20029;-77
2022/03/26 02:36:09;;;;;;;40.40;19.95;;;;;;;6.01;68.55;103077.00;5023552;28;20026;-77
2022/03/26 02:38:36;;;;;;;39.13;18.95;;;;;;;5.98;68.91;103081.94;5023255;28;20093;-77
2022/03/26 02:41:01;;;;;;;39.83;19.45;;;;;;;5.96;68.77;103084.38;5022681;28;20053;-77
2022/03/26 02:43:27;;;;;;;42.42;19.00;;;;;;;5.92;69.37;103078.06;5023519;28;20030;-77
2022/03/26 02:45:52;;;;;;;42.92;20.00;;;;;;;5.95;69.30;103079.09;5022627;28;20038;-77
2022/03/26 02:48:17;;;;;;;39.13;19.90;;;;;;;5.94;69.40;103075.59;5022433;28;20022;-77
2022/03/26 02:50:44;;;;;;;45.17;20.08;;;;;;;5.90;69.74;103074.44;5023066;28;20026;-77
2022/03/26 02:53:10;;;;;;;40.60;20.85;;;;;;;5.88;69.74;103075.09;5023272;28;20246;-77
2022/03/26 02:55:35;;;;;;;44.25;21.30;;;;;;;5.85;69.51;103080.97;5018773;28;20034;-77
2022/03/26 02:58:02;;;;;;;42.63;20.20;;;;;;;5.82;69.89;103079.78;5025624;28;20030;-77
2022/03/26 03:00:28;;;;;;;42.50;19.73;;;;;;;5.80;69.68;103073.59;5022290;28;20248;-77
2022/03/26 03:02:54;;;;;;;46.88;20.90;;;;;;;5.75;70.07;103074.13;5022998;28;20021;-78
2022/03/26 03:05:19;;;;;;;42.70;19.83;;;;;;;5.71;69.92;103071.19;5022899;28;20030;-77
2022/03/26 03:07:45;;;;;;;38.88;19.92;;;;;;;5.63;69.84;103070.56;5017384;28;20089;-78
2022/03/26 03:10:12;;;;;;;44.08;19.80;;;;;;;5.55;70.40;103085.47;5030689;28;20105;-79
2022/03/26 03:12:38;;;;;;;38.15;18.58;;;;;;;5.45;70.16;103076.88;5023698;28;20037;-79
2022/03/26 03:15:03;;;;;;;40.63;19.10;;;;;;;5.40;70.53;103082.56;5021923;28;20180;-79
2022/03/26 03:17:29;;;;;;;45.42;19.98;;;;;;;5.37;70.14;103074.56;5022643;28;20033;-79
2022/03/26 03:19:54;;;;;;;40.45;19.35;;;;;;;5.35;71.00;103076.13;5021895;28;20096;-79
2022/03/26 03:22:19;;;;;;;39.40;19.70;;;;;;;5.36;70.88;103077.94;5022060;28;20045;-79
2022/03/26 03:24:45;;;;;;;37.70;18.75;;;;;;;5.31;70.56;103081.81;5022525;28;20021;-79
2022/03/26 03:27:10;;;;;;;40.53;18.90;;;;;;;5.24;70.41;103074.34;5022624;28;20268;-79
2022/03/26 03:29:35;;;;;;;36.70;17.90;;;;;;;5.16;70.23;103078.88;5021141;28;20068;-79
2022/03/26 03:32:01;;;;;;;34.92;17.90;;;;;;;5.10;70.42;103080.06;5031683;28;20026;-79
2022/03/26 03:34:26;;;;;;;37.90;19.15;;;;;;;5.05;70.97;103077.09;5024934;28;20234;-79
2022/03/26 03:36:52;;;;;;;38.90;19.35;;;;;;;5.05;71.39;103080.59;5020655;28;20033;-77
2022/03/26 03:39:17;;;;;;;37.53;18.83;;;;;;;5.08;71.20;103071.28;5023584;28;20322;-77
2022/03/26 03:41:43;;;;;;;44.22;19.38;;;;;;;5.09;71.46;103080.84;5023166;28;20042;-77
2022/03/26 03:44:10;;;;;;;40.13;18.88;;;;;;;5.08;71.01;103079.94;5022933;28;20356;-78
2022/03/26 03:46:35;;;;;;;38.65;18.15;;;;;;;5.07;71.02;103078.16;5017748;28;20044;-78
2022/03/26 03:49:02;;;;;;;39.45;18.30;;;;;;;5.07;71.35;103078.16;5023519;28;20283;-78
2022/03/26 03:51:27;;;;;;;36.03;18.35;;;;;;;5.05;71.49;103083.19;5021647;28;20097;-78
2022/03/26 03:53:53;;;;;;;42.38;18.63;;;;;;;5.04;71.31;103085.66;5022013;28;20990;-78
2022/03/26 03:56:18;;;;;;;39.70;18.90;;;;;;;5.04;71.32;103083.97;5021111;28;20065;-77
2022/03/26 03:58:43;;;;;;;36.58;18.52;;;;;;;5.01;71.43;103096.63;5019766;28;20030;-77
2022/03/26 04:01:09;;;;;;;39.15;18.85;;;;;;;5.00;71.50;103096.50;5023472;28;20029;-77
2022/03/26 04:03:34;;;;;;;38.20;18.77;;;;;;;5.01;71.66;103096.63;5020743;28;20335;-77
2022/03/26 04:06:00;;;;;;;43.63;18.45;;;;;;;5.02;71.66;103095.84;5022276;28;20076;-78
2022/03/26 04:08:25;;;;;;;37.75;18.58;;;;;;;5.04;71.75;103093.41;5020812;28;20109;-78
2022/03/26 04:10:50;;;;;;;35.85;18.25;;;;;;;5.02;72.25;103095.84;5021601;28;20069;-78
2022/03/26 04:13:16;;;;;;;41.58;19.83;;;;;;;5.02;71.74;103090.66;5022005;28;20093;-77
2022/03/26 04:15:41;;;;;;;39.00;19.63;;;;;;;5.01;72.11;103091.47;5021023;28;20428;-77
2022/03/26 04:18:06;;;;;;;37.90;19.92;;;;;;;5.01;72.17;103098.28;5012946;28;20037;-77
2022/03/26 04:20:35;;;;;;;40.90;20.55;;;;;;;4.97;71.83;103099.72;5017707;28;20077;-77
2022/03/26 04:23:01;;;;;;;38.28;18.65;;;;;;;4.92;71.78;103097.53;5019866;28;20060;-77
2022/03/26 04:25:26;;;;;;;39.13;18.35;;;;;;;4.84;72.13;103090.06;5020347;28;20026;-77
2022/03/26 04:27:52;;;;;;;40.90;19.38;;;;;;;4.82;72.33;103101.03;5020592;28;20049;-77
2022/03/26 04:30:18;;;;;;;39.45;19.70;;;;;;;4.77;72.40;103092.91;5020660;28;20383;-78
2022/03/26 04:32:43;;;;;;;43.50;19.20;;;;;;;4.72;71.63;103094.19;5023727;28;20176;-78
2022/03/26 04:35:09;;;;;;;37.72;18.40;;;;;;;4.67;72.34;103091.22;5015177;28;20041;-77
2022/03/26 04:37:35;;;;;;;40.60;18.67;;;;;;;4.63;72.42;103094.31;5021664;28;20041;-77
2022/03/26 04:40:01;;;;;;;42.50;19.17;;;;;;;4.59;71.97;103094.88;5020320;28;20064;-77
2022/03/26 04:42:26;;;;;;;38.22;18.55;;;;;;;4.60;72.67;103095.75;5022495;28;20032;-77
2022/03/26 04:44:52;;;;;;;40.45;18.92;;;;;;;4.59;72.89;103086.19;5020810;28;20041;-77
2022/03/26 04:47:17;;;;;;;38.45;17.75;;;;;;;4.53;72.62;103087.50;5021802;28;20042;-77
2022/03/26 04:49:42;;;;;;;33.00;17.70;;;;;;;4.48;72.74;103087.88;5020340;28;20028;-77
2022/03/26 04:52:08;;;;;;;35.47;16.08;;;;;;;4.41;72.26;103088.13;5021214;28;20344;-77
2022/03/26 04:54:33;;;;;;;32.88;16.88;;;;;;;4.33;72.37;103088.38;5021365;28;20056;-77
2022/03/26 04:56:59;;;;;;;35.47;17.10;;;;;;;4.27;72.68;103086.94;5021808;28;20264;-77
2022/03/26 04:59:24;;;;;;;33.08;16.77;;;;;;;4.16;72.94;103094.69;5023875;28;20030;-77
2022/03/26 05:01:49;;;;;;;35.20;16.50;;;;;;;4.11;73.03;103095.03;5021302;28;20022;-77
2022/03/26 05:04:14;;;;;;;35.97;16.30;;;;;;;4.07;73.23;103095.56;5021698;28;20032;-77
2022/03/26 05:06:40;;;;;;;39.20;18.25;;;;;;;4.03;74.19;103090.88;5019932;28;20273;-77
2022/03/26 05:09:06;;;;;;;38.67;17.45;;;;;;;4.00;74.17;103094.13;5021421;28;20277;-77
2022/03/26 05:11:31;;;;;;;40.72;17.83;;;;;;;3.96;74.00;103085.22;5025571;28;20292;-77
2022/03/26 05:13:57;;;;;;;38.30;17.88;;;;;;;3.95;74.31;103095.41;5026271;28;20268;-77
2022/03/26 05:16:22;;;;;;;39.78;17.77;;;;;;;3.96;74.40;103094.63;5022980;28;20041;-77
2022/03/26 05:18:48;;;;;;;35.97;18.08;;;;;;;4.00;74.52;103094.13;5026056;28;20328;-77
2022/03/26 05:21:14;;;;;;;40.35;17.52;;;;;;;4.00;74.52;103097.59;5025517;28;20134;-77
2022/03/26 05:23:39;;;;;;;37.75;17.33;;;;;;;4.03;74.35;103101.22;5025848;28;20022;-77
2022/03/26 05:26:04;;;;;;;33.50;17.63;;;;;;;4.06;74.33;103106.66;5024131;28;20034;-77
2022/03/26 05:28:30;;;;;;;39.75;17.95;;;;;;;4.07;74.50;103114.53;5025386;28;20052;-77
2022/03/26 05:30:56;;;;;;;35.40;17.55;;;;;;;4.06;74.34;103107.56;5024142;28;20041;-77
2022/03/26 05:33:21;;;;;;;40.28;19.65;;;;;;;4.09;74.54;103109.50;5023900;28;20303;-77
2022/03/26 05:35:47;;;;;;;36.22;17.95;;;;;;;4.10;74.67;103109.63;5024210;28;20042;-77
2022/03/26 05:38:12;;;;;;;40.13;19.13;;;;;;;4.13;74.85;103111.59;5025792;28;20085;-77
2022/03/26 05:40:38;;;;;;;43.28;19.42;;;;;;;4.14;74.64;103116.88;5024446;28;20034;-77
2022/03/26 05:43:03;;;;;;;42.80;20.35;;;;;;;4.13;74.94;103120.22;5025386;28;20185;-77
2022/03/26 05:45:30;;;;;;;40.25;19.08;;;;;;;4.15;74.97;103117.75;5023753;28;20057;-77
2022/03/26 05:47:57;;;;;;;43.17;20.08;;;;;;;4.15;75.06;103120.34;5023521;28;20053;-77
2022/03/26 05:50:22;;;;;;;49.22;20.42;;;;;;;4.16;75.50;103129.91;5025166;28;20072;-77
2022/03/26 05:52:48;;;;;;;42.58;20.13;;;;;;;4.17;75.47;103134.28;5024608;28;20272;-77
2022/03/26 05:55:13;;;;;;;42.63;20.30;;;;;;;4.18;75.37;103134.41;5023452;28;20052;-77
2022/03/26 05:57:38;;;;;;;41.55;20.10;;;;;;;4.23;75.49;103136.47;5024566;28;20057;-77
2022/03/26 06:00:06;;;;;;;41.22;20.08;;;;;;;4.23;75.21;103141.63;5024341;28;20295;-77
2022/03/26 06:02:31;;;;;;;39.95;18.73;;;;;;;4.21;75.04;103138.94;5024118;28;20068;-77
2022/03/26 06:04:56;;;;;;;39.55;19.08;;;;;;;4.23;75.14;103145.16;5024469;28;20030;-77
2022/03/26 06:07:22;;;;;;;40.70;18.98;;;;;;;4.24;75.12;103144.34;5023367;28;20154;-77
2022/03/26 06:09:47;;;;;;;41.88;18.50;;;;;;;4.27;75.14;103143.72;5024277;28;20242;-77
2022/03/26 06:12:12;;;;;;;39.83;19.23;;;;;;;4.28;75.24;103146.44;5025051;28;20033;-77
2022/03/26 06:14:38;;;;;;;38.90;18.63;;;;;;;4.30;75.19;103144.91;5021058;28;20178;-77
2022/03/26 06:17:03;;;;;;;42.80;18.80;;;;;;;4.33;74.99;103144.25;5025014;28;20029;-77
2022/03/26 06:19:29;;;;;;;39.42;19.23;;;;;;;4.41;75.01;103139.75;5022655;28;20260;-77
2022/03/26 06:21:54;;;;;;;41.28;17.88;;;;;;;4.45;74.92;103142.72;5021682;28;20038;-77
2022/03/26 06:24:22;;;;;;;41.05;18.90;;;;;;;4.49;74.81;103141.28;5021552;28;20065;-77
2022/03/26 06:26:48;;;;;;;43.83;19.25;;;;;;;4.50;75.23;103144.03;5022656;28;20041;-77
2022/03/26 06:29:14;;;;;;;39.45;19.25;;;;;;;4.55;74.86;103156.41;5024405;28;20307;-77
2022/03/26 06:31:40;;;;;;;40.13;20.27;;;;;;;4.58;75.13;103142.09;5022534;28;20041;-77
2022/03/26 06:34:06;;;;;;;42.72;20.05;;;;;;;4.64;75.43;103147.78;5021884;28;20284;-77
2022/03/26 06:36:31;;;;;;;42.92;19.15;;;;;;;4.72;75.18;103150.09;5023171;28;20073;-77
2022/03/26 06:38:57;;;;;;;43.35;18.88;;;;;;;4.79;75.10;103150.75;5023033;28;20064;-77
2022/03/26 06:41:23;;;;;;;43.35;20.40;;;;;;;4.84;74.78;103152.06;5023361;28;20188;-78
2022/03/26 06:43:48;;;;;;;43.53;19.73;;;;;;;4.92;74.97;103160.44;5024241;28;20264;-74
2022/03/26 06:46:13;;;;;;;49.00;21.13;;;;;;;5.03;75.70;103169.09;5020584;28;20041;-74
2022/03/26 06:48:39;;;;;;;46.20;20.80;;;;;;;5.16;75.97;103158.13;5021554;28;20030;-74
2022/03/26 06:51:06;;;;;;;40.78;20.83;;;;;;;5.45;76.50;103164.78;5023698;28;20068;-74
2022/03/26 06:53:33;;;;;;;43.42;19.70;;;;;;;6.51;73.33;103164.59;5023834;28;20181;-74
2022/03/26 06:55:59;;;;;;;49.00;21.20;;;;;;;7.53;70.49;103155.00;5022340;28;20104;-74
2022/03/26 06:58:25;;;;;;;45.35;20.50;;;;;;;8.42;66.73;103163.03;5021866;28;20022;-74
2022/03/26 07:00:50;;;;;;;45.00;20.90;;;;;;;9.52;63.97;103163.53;5022302;28;20034;-74
2022/03/26 07:03:16;;;;;;;41.33;20.30;;;;;;;10.75;60.26;103164.25;5023578;28;20022;-74
2022/03/26 07:05:41;;;;;;;42.47;19.65;;;;;;;11.71;56.29;103161.97;5023857;28;20061;-74
2022/03/26 07:08:07;;;;;;;38.92;20.10;;;;;;;12.54;53.97;103171.72;5023922;28;20030;-74
2022/03/26 07:10:32;;;;;;;43.13;21.30;;;;;;;13.28;52.06;103162.47;5021839;28;20097;-74
2022/03/26 07:12:58;;;;;;;50.53;23.42;;;;;;;13.68;50.79;103164.41;5023485;28;20319;-74
2022/03/26 07:15:23;;;;;;;46.50;22.50;;;;;;;13.86;49.77;103167.03;5023445;28;20049;-74
2022/03/26 07:17:48;;;;;;;46.17;23.02;;;;;;;14.07;49.61;103169.75;5023132;28;20076;-74
2022/03/26 07:20:14;;;;;;;48.45;23.65;;;;;;;14.53;48.20;103167.44;5022223;28;20039;-74
2022/03/26 07:22:41;;;;;;;52.28;24.92;;;;;;;14.67;47.57;103163.75;5021719;28;20041;-74
2022/03/26 07:25:07;;;;;;;53.00;25.48;;;;;;;14.94;46.63;103164.03;5023766;28;20098;-74
2022/03/26 07:27:35;;;;;;;58.97;27.35;;;;;;;15.67;45.05;103163.50;5023291;28;20206;-74
2022/03/26 07:30:01;;;;;;;59.25;26.60;;;;;;;16.40;43.72;103165.44;5023845;28;20037;-74
2022/03/26 07:32:26;;;;;;;62.95;27.33;;;;;;;16.85;42.01;103170.56;5023164;28;20029;-74
2022/03/26 07:34:53;;;;;;;69.15;29.23;;;;;;;17.12;41.51;103164.50;5023643;28;20279;-74
2022/03/26 07:37:18;;;;;;;80.25;31.98;;;;;;;17.32;40.67;103164.25;5023154;28;20075;-74
2022/03/26 07:39:44;;;;;;;87.13;32.80;;;;;;;16.92;41.07;103162.94;5022907;28;20026;-74
2022/03/26 07:42:09;;;;;;;91.93;34.95;;;;;;;16.15;43.58;103172.44;5020440;28;20253;-74
2022/03/26 07:44:35;;;;;;;105.78;36.25;;;;;;;15.22;45.15;103174.81;5017720;28;20347;-73
2022/03/26 07:47:00;;;;;;;99.57;36.65;;;;;;;14.36;46.52;103178.06;5021218;28;20284;-74
2022/03/26 07:49:25;;;;;;;114.75;39.35;;;;;;;13.70;48.45;103178.50;5019648;28;20239;-74
2022/03/26 07:51:51;;;;;;;108.70;37.67;;;;;;;13.12;49.99;103175.56;5021002;28;20033;-74
2022/03/26 07:54:16;;;;;;;115.57;39.13;;;;;;;12.73;51.39;103183.16;5021585;28;20030;-74
2022/03/26 07:56:42;;;;;;;127.07;39.58;;;;;;;12.37;52.10;103183.94;5021687;28;20030;-73
2022/03/26 07:59:07;;;;;;;125.90;40.30;;;;;;;12.11;53.04;103179.91;5024424;28;20077;-74
2022/03/26 08:01:32;;;;;;;114.63;38.72;;;;;;;11.89;54.56;103199.56;5022190;28;20029;-73
2022/03/26 08:06:34;;;;;;;126.75;40.60;;;;;;;11.54;55.17;103188.00;4941253;28;20075;-90
2022/03/26 08:09:08;;;;;;;120.15;40.33;;;;;;;11.48;55.80;103192.88;4964196;28;20035;-89
2022/03/26 08:12:03;;;;;;;123.50;39.58;;;;;;;11.41;56.30;103186.44;4949832;28;20035;-90
2022/03/26 08:14:33;;;;;;;123.38;39.45;;;;;;;11.39;55.82;103188.03;4956047;28;21022;-90
2022/03/26 08:17:05;;;;;;;124.80;40.00;;;;;;;11.42;56.57;103196.03;4948060;28;20086;-90
2022/03/26 08:20:34;;;;;;;;;;;;;;;;;;;;;
2022/03/26 08:22:49;;;;;;;123.90;42.17;;;;;;;11.40;56.62;103194.16;4944133;28;20062;-89
2022/03/26 08:26:19;;;;;;;125.47;40.78;;;;;;;11.36;56.20;103194.78;4943600;28;20039;-89
2022/03/26 08:28:18;;;;;;;121.22;40.53;;;;;;;11.35;56.71;103193.88;4946241;28;20066;-89
2022/03/26 08:30:46;;;;;;;128.30;42.13;;;;;;;11.40;57.27;103195.06;4946907;28;20430;-89
2022/03/26 08:33:20;;;;;;;124.32;41.92;;;;;;;11.51;58.90;103198.28;4952360;28;20035;-89
2022/03/26 08:35:54;;;;;;;114.32;39.08;;;;;;;11.61;57.19;103204.94;4950812;28;20366;-89
2022/03/26 08:38:27;;;;;;;120.47;39.63;;;;;;;11.70;58.11;103200.22;4949415;28;20031;-89
2022/03/26 08:40:55;;;;;;;108.03;38.03;;;;;;;11.81;56.75;103203.47;4952299;28;20027;-89
2022/03/26 08:43:25;;;;;;;113.30;38.60;;;;;;;11.94;57.56;103211.19;4952202;28;20149;-89
2022/03/26 08:45:53;;;;;;;113.18;40.15;;;;;;;12.05;58.31;103205.66;4962777;28;20038;-90
2022/03/26 08:48:19;;;;;;;120.60;39.55;;;;;;;12.13;56.76;103210.50;4961326;28;20490;-89
2022/03/26 08:50:47;;;;;;;103.78;37.25;;;;;;;12.21;56.47;103204.81;4960466;28;20075;-89
2022/03/26 08:53:13;;;;;;;114.90;37.78;;;;;;;12.34;56.86;103205.56;4957890;28;20028;-89
2022/03/26 08:55:43;;;;;;;119.70;39.22;;;;;;;12.40;56.35;103201.47;4956788;28;20106;-90
2022/03/26 08:58:17;;;;;;;135.27;47.55;;;;;;;12.48;56.23;103206.34;4956102;28;20039;-90
2022/03/26 09:00:52;;;;;;;126.00;42.03;;;;;;;12.59;57.20;103204.28;4956010;28;20039;-89
2022/03/26 09:03:27;;;;;;;126.93;43.47;;;;;;;12.72;56.26;103202.31;4956340;28;20125;-89
2022/03/26 09:05:58;;;;;;;123.80;44.80;;;;;;;12.82;55.46;103199.38;4955472;28;20051;-90
2022/03/26 09:08:26;;;;;;;136.65;47.42;;;;;;;12.98;54.91;103209.81;4957131;28;20159;-89
2022/03/26 09:11:04;;;;;;;127.80;43.28;;;;;;;13.06;54.88;103207.56;4955431;28;20042;-90
2022/03/26 09:13:50;;;;;;;124.10;42.28;;;;;;;13.16;55.27;103206.31;4967881;28;20161;-90
2022/03/26 09:16:17;;;;;;;117.22;40.10;;;;;;;13.28;54.52;103206.97;4972748;28;20499;-90
2022/03/26 09:18:47;;;;;;;121.65;44.53;;;;;;;13.45;56.45;103214.78;4956714;28;20554;-90
2022/03/26 09:21:46;;;;;;;100.05;35.75;;;;;;;13.52;54.44;103215.16;4957465;28;20542;-90
2022/03/26 09:24:51;;;;;;;110.13;33.72;;;;;;;13.64;54.72;103211.34;4955140;28;20135;-90
2022/03/26 09:27:42;;;;;;;106.20;35.70;;;;;;;13.80;54.24;103218.25;4935707;29;20111;-90
2022/03/26 09:30:40;;;;;;;107.75;35.97;;;;;;;13.95;53.69;103220.69;4935807;29;20407;-90
2022/03/26 09:36:53;;;;;;;104.55;35.10;;;;;;;14.09;53.20;103212.69;4955788;28;20045;-90
2022/03/26 09:39:38;;;;;;;;;;;;;;;;;;;;;
2022/03/26 09:42:28;;;;;;;108.82;35.03;;;;;;;14.27;51.15;103203.88;4956789;28;20035;-90
2022/03/26 09:45:23;;;;;;;104.68;34.17;;;;;;;14.39;52.36;103204.44;4947348;28;20130;-90
2022/03/26 09:48:18;;;;;;;140.35;46.42;;;;;;;14.51;52.16;103201.50;4956999;28;20081;-91
2022/03/26 09:51:19;;;;;;;114.35;39.20;;;;;;;14.65;51.10;103214.38;4953900;28;20487;-91
2022/03/26 09:54:36;;;;;;;98.75;36.05;;;;;;;14.75;51.12;103208.69;4949486;28;20055;-91
2022/03/26 10:01:00;;;;;;;92.28;32.00;;;;;;;14.96;50.03;103206.09;4912161;28;20125;-91
2022/03/26 10:04:30;;;;;;;98.68;32.55;;;;;;;15.10;50.93;103207.59;4952132;28;20035;-91
2022/03/26 10:10:52;;;;;;;93.03;32.35;;;;;;;15.39;50.92;103207.03;4933867;28;20042;-91
2022/03/26 10:27:59;;;;;;;;;;;;;;;;;;;;;
2022/03/26 10:34:58;;;;;;;53.72;23.33;;;;;;;16.07;47.58;103200.16;4873746;29;20048;-91
2022/03/26 10:37:55;;;;;;;;;;;;;;;;;;;;;
2022/03/26 10:41:28;;;;;;;46.50;21.15;;;;;;;16.36;44.69;103195.13;4821874;29;20062;-91
2022/03/26 10:48:44;;;;;;;40.75;19.92;;;;;;;16.34;44.63;103178.38;4806398;29;20044;-92
2022/03/26 10:54:51;;;;;;;36.08;17.67;;;;;;;16.55;45.18;103180.91;4820245;29;20046;-94
2022/03/26 10:57:29;;;;;;;34.72;18.08;;;;;;;16.70;42.17;103180.56;4807872;29;20168;-94
2022/03/26 11:00:19;;;;;;;34.45;18.00;;;;;;;16.73;43.76;103177.13;4861746;28;20096;-94
2022/03/26 11:02:48;;;;;;;73.15;20.92;;;;;;;16.70;41.77;103172.69;4949749;28;20046;-94
2022/03/26 11:05:19;;;;;;;367.20;40.28;;;;;;;16.74;43.14;103169.28;4949886;28;20348;-94
2022/03/26 11:07:55;;;;;;;45.30;19.25;;;;;;;16.85;45.02;103170.56;4950233;28;20133;-95
2022/03/26 11:10:24;;;;;;;30.83;16.15;;;;;;;16.97;43.48;103174.50;4953451;28;20392;-94
2022/03/26 11:12:50;;;;;;;36.97;18.98;;;;;;;17.05;43.26;103178.31;4950835;28;20701;-93
2022/03/26 11:18:45;;;;;;;28.83;16.27;;;;;;;16.99;44.29;103176.34;5036942;28;20101;-73
2022/03/26 11:21:30;;;;;;;45.80;17.02;;;;;;;16.93;54.74;103170.88;5038532;28;20095;-78
2022/03/26 11:24:20;;;;;;;32.05;16.20;;;;;;;17.10;50.23;103174.06;5046534;28;20028;-85
2022/03/26 11:26:54;;;;;;;32.50;15.90;;;;;;;17.15;46.50;103177.78;5041436;28;20029;-79
2022/03/26 11:29:25;;;;;;;33.63;17.17;;;;;;;17.13;46.05;103168.94;5035459;28;20080;-81
2022/03/26 11:32:06;;;;;;;30.38;16.52;;;;;;;17.13;46.35;103173.28;5041919;28;20045;-78
2022/03/26 11:34:36;;;;;;;26.33;15.48;;;;;;;17.14;45.47;103162.81;5040527;28;20024;-80
2022/03/26 11:37:25;;;;;;;26.48;15.02;;;;;;;17.29;48.53;103161.53;5039155;28;20037;-76
2022/03/26 11:39:51;;;;;;;;;;;;;;;17.37;47.46;103154.78;5035607;28;20072;-76
2022/03/26 11:42:37;;;;;;;27.33;14.90;;;;;;;17.48;46.97;103163.94;5042397;28;19948;-80
2022/03/26 11:51:16;;;;;;;21.42;13.57;;;;;;;17.60;47.44;103158.16;5038699;28;20044;-81
2022/03/26 11:53:44;;;;;;;34.03;16.48;;;;;;;17.61;47.12;103148.47;5029995;28;20156;-79
2022/03/26 11:56:20;;;;;;;23.88;14.05;;;;;;;17.62;46.98;103145.00;5018464;28;20299;-82
2022/03/26 11:59:10;;;;;;;25.23;13.63;;;;;;;17.65;46.83;103143.34;5021490;28;20044;-85
2022/03/26 12:01:36;;;;;;;20.58;13.02;;;;;;;17.71;47.06;103145.28;5011105;28;20256;-80
2022/03/26 12:04:13;;;;;;;21.98;14.00;;;;;;;17.76;46.24;103137.53;5022570;28;20021;-81
2022/03/26 12:06:43;;;;;;;20.05;12.50;;;;;;;17.83;47.85;103135.13;5023130;28;20017;-80
2022/03/26 12:09:10;;;;;;;18.17;11.43;;;;;;;17.85;46.61;103133.41;5019844;28;20272;-80
2022/03/26 12:11:36;;;;;;;17.52;11.57;;;;;;;17.86;45.38;103132.56;5022594;28;20051;-81
2022/03/26 12:14:03;;;;;;;19.13;11.52;;;;;;;17.86;44.63;103135.22;5022215;28;20025;-81
2022/03/26 12:16:50;;;;;;;18.30;11.82;;;;;;;17.93;47.18;103130.16;5022511;28;20065;-81
2022/03/26 12:19:47;;;;;;;15.95;11.32;;;;;;;17.99;47.15;103125.97;5021950;28;20037;-80